Time;durP1;ratioP1;P1;durP2;ratioP2;P2;SDS_P1;SDS_P2;PMS_P1;PMS_P2;Temp;Humidity;BMP_temperature;BMP_pressure;BME280_temperature;BME280_humidity;BME280_pressure;Samples;Min_cycle;Max_cycle;Signal;HPM_P1;HPM_P2
2022/12/10 00:01:50;;;;;;;42.47;27.40;;;0.70;99.90;;;;;;5096228;28;20504;-73
2022/12/10 00:04:19;;;;;;;38.87;26.30;;;0.80;99.90;;;;;;5095649;28;20456;-73
2022/12/10 00:06:48;;;;;;;43.30;26.93;;;0.70;99.90;;;;;;5091213;28;20727;-73
2022/12/10 00:09:18;;;;;;;41.47;27.50;;;0.70;99.90;;;;;;5076311;28;20207;-74
2022/12/10 00:11:47;;;;;;;41.07;26.77;;;0.70;99.90;;;;;;5076501;28;20218;-75
2022/12/10 00:14:16;;;;;;;38.50;25.77;;;0.70;99.90;;;;;;5075126;28;20215;-74
2022/12/10 00:16:45;;;;;;;37.37;25.70;;;0.70;99.90;;;;;;5080783;28;20696;-73
2022/12/10 00:19:14;;;;;;;38.17;26.40;;;0.70;99.90;;;;;;5095522;28;20251;-73
2022/12/10 00:21:44;;;;;;;39.10;25.60;;;0.70;99.90;;;;;;5076531;28;20207;-74
2022/12/10 00:24:12;;;;;;;35.93;25.87;;;0.70;99.90;;;;;;5075888;28;20571;-74
2022/12/10 00:26:41;;;;;;;35.43;24.87;;;0.70;99.90;;;;;;5075211;28;20298;-73
2022/12/10 00:29:12;;;;;;;37.03;25.80;;;0.70;99.90;;;;;;5076226;28;20213;-73
2022/12/10 00:31:41;;;;;;;35.93;25.17;;;0.70;99.90;;;;;;5075321;28;20207;-73
2022/12/10 00:34:12;;;;;;;35.07;25.20;;;0.80;99.90;;;;;;5093008;28;20461;-73
2022/12/10 00:36:44;;;;;;;34.57;24.90;;;0.80;99.90;;;;;;5095414;28;20254;-73
2022/12/10 00:39:14;;;;;;;37.20;26.37;;;0.80;99.90;;;;;;5089705;28;20539;-73
2022/12/10 00:41:42;;;;;;;33.57;25.13;;;0.80;99.90;;;;;;5095015;28;20232;-73
2022/12/10 00:44:10;;;;;;;35.43;24.70;;;0.70;99.90;;;;;;5076291;28;20625;-74
2022/12/10 00:46:39;;;;;;;34.30;25.80;;;0.70;99.90;;;;;;5093251;28;20203;-74
2022/12/10 00:49:07;;;;;;;37.67;26.23;;;0.70;99.90;;;;;;5093730;28;20233;-73
2022/12/10 00:51:37;;;;;;;32.77;25.17;;;0.80;99.90;;;;;;5093993;28;20210;-74
2022/12/10 00:54:07;;;;;;;34.80;25.27;;;0.70;99.90;;;;;;5085161;28;20243;-73
2022/12/10 00:56:35;;;;;;;36.00;26.63;;;0.70;99.90;;;;;;5073133;28;20223;-74
2022/12/10 00:59:03;;;;;;;34.30;25.83;;;0.80;99.90;;;;;;5073340;28;20207;-74
2022/12/10 01:01:34;;;;;;;33.83;25.50;;;0.60;99.90;;;;;;5076387;28;20257;-74
2022/12/10 01:04:07;;;;;;;35.07;26.30;;;0.70;99.90;;;;;;5093679;28;20189;-73
2022/12/10 01:06:41;;;;;;;35.33;26.53;;;0.70;99.90;;;;;;5094337;28;20577;-77
2022/12/10 01:09:12;;;;;;;35.63;24.83;;;0.70;99.90;;;;;;5093975;28;20194;-74
2022/12/10 01:11:43;;;;;;;34.73;26.50;;;0.70;99.90;;;;;;5092873;28;20343;-75
2022/12/10 01:14:13;;;;;;;35.43;26.20;;;0.70;99.90;;;;;;5093405;28;20199;-75
2022/12/10 01:16:42;;;;;;;34.73;26.13;;;0.70;99.90;;;;;;5093724;28;20700;-73
2022/12/10 01:19:11;;;;;;;35.10;26.23;;;0.70;99.90;;;;;;5092817;28;20215;-75
2022/12/10 01:21:40;;;;;;;37.17;27.23;;;0.70;99.90;;;;;;5093606;28;20237;-73
2022/12/10 01:24:09;;;;;;;35.57;26.77;;;0.70;99.90;;;;;;5093491;28;20661;-75
2022/12/10 01:26:38;;;;;;;39.10;27.47;;;0.70;99.90;;;;;;5081161;28;20218;-73
2022/12/10 01:29:06;;;;;;;36.37;27.03;;;0.80;99.90;;;;;;5073483;28;20199;-73
2022/12/10 01:31:36;;;;;;;35.10;26.90;;;0.90;99.90;;;;;;5073557;28;20445;-73
2022/12/10 01:34:06;;;;;;;36.27;26.53;;;0.80;99.90;;;;;;5085271;28;20229;-74
2022/12/10 01:36:37;;;;;;;36.60;27.30;;;0.80;99.90;;;;;;5093462;28;20573;-73
2022/12/10 01:39:08;;;;;;;37.03;26.63;;;0.80;99.90;;;;;;5094374;28;20187;-74
2022/12/10 01:41:39;;;;;;;37.80;27.67;;;0.70;99.90;;;;;;5089780;28;20553;-75
2022/12/10 01:44:40;;;;;;;36.80;27.83;;;0.70;99.90;;;;;;5073423;28;20293;-73
2022/12/10 01:47:10;;;;;;;37.13;27.63;;;0.70;99.90;;;;;;5074349;28;20231;-75
2022/12/10 01:49:40;;;;;;;38.27;26.87;;;0.70;99.90;;;;;;5082041;28;20468;-73
2022/12/10 01:52:11;;;;;;;39.63;28.17;;;0.70;99.90;;;;;;5093755;28;20214;-72
2022/12/10 01:54:44;;;;;;;37.13;27.63;;;0.70;99.90;;;;;;5093423;28;20187;-76
2022/12/10 01:57:15;;;;;;;35.43;27.00;;;0.70;99.90;;;;;;5093725;28;20226;-75
2022/12/10 01:59:45;;;;;;;38.20;27.53;;;0.70;99.90;;;;;;5073377;28;20214;-74
2022/12/10 02:02:22;;;;;;;37.63;28.50;;;0.70;99.90;;;;;;5077894;28;20196;-75
2022/12/10 02:05:04;;;;;;;36.87;27.57;;;0.70;99.90;;;;;;5077906;28;20666;-74
2022/12/10 02:07:42;;;;;;;39.37;28.60;;;0.70;99.90;;;;;;5062933;28;20253;-75
2022/12/10 02:10:25;;;;;;;42.50;28.20;;;0.70;99.90;;;;;;5076968;28;20265;-73
2022/12/10 02:13:02;;;;;;;42.17;29.53;;;0.80;99.90;;;;;;5078230;28;20180;-74
2022/12/10 02:15:34;;;;;;;40.33;29.77;;;0.60;99.90;;;;;;5097984;28;20212;-75
2022/12/10 02:18:07;;;;;;;42.47;30.93;;;0.60;99.90;;;;;;5098656;28;20655;-74
2022/12/10 02:20:39;;;;;;;41.77;29.77;;;0.70;99.90;;;;;;5099122;28;20203;-74
2022/12/10 02:23:11;;;;;;;41.43;30.60;;;0.60;99.90;;;;;;5098361;28;20218;-75
2022/12/10 02:25:46;;;;;;;39.37;29.07;;;0.70;99.90;;;;;;5098486;28;20187;-73
2022/12/10 02:28:24;;;;;;;41.27;30.53;;;0.60;99.90;;;;;;5080789;28;20669;-75
2022/12/10 02:30:56;;;;;;;39.23;30.07;;;0.60;99.90;;;;;;5097834;28;20290;-73
2022/12/10 02:33:26;;;;;;;45.13;30.53;;;0.60;99.90;;;;;;5097525;28;20199;-73
2022/12/10 02:35:56;;;;;;;42.23;29.03;;;0.60;99.90;;;;;;5098196;28;20649;-75
2022/12/10 02:38:29;;;;;;;38.23;28.43;;;0.60;99.90;;;;;;5098258;28;20491;-73
2022/12/10 02:41:01;;;;;;;42.50;29.00;;;0.60;99.90;;;;;;5098106;28;20621;-75
2022/12/10 02:43:31;;;;;;;41.30;28.03;;;0.50;99.90;;;;;;5095702;28;20229;-74
2022/12/10 02:46:04;;;;;;;35.97;27.87;;;0.50;99.90;;;;;;5096413;28;20206;-75
2022/12/10 02:48:35;;;;;;;38.50;27.67;;;0.40;99.90;;;;;;5096250;28;20269;-74
2022/12/10 02:51:03;;;;;;;39.43;27.97;;;0.50;99.90;;;;;;5096990;28;20273;-73
2022/12/10 02:53:31;;;;;;;37.00;27.90;;;0.40;99.90;;;;;;5096235;28;20673;-73
2022/12/10 02:56:22;;;;;;;39.60;28.40;;;0.40;99.90;;;;;;5096680;28;20719;-74
2022/12/10 02:58:59;;;;;;;37.70;27.40;;;0.50;99.90;;;;;;5095148;28;20314;-74
2022/12/10 03:01:41;;;;;;;40.43;28.30;;;0.50;99.90;;;;;;5095812;28;20250;-76
2022/12/10 03:04:14;;;;;;;36.77;26.30;;;0.40;99.90;;;;;;5096411;28;20683;-74
2022/12/10 03:06:48;;;;;;;35.40;27.13;;;0.50;99.90;;;;;;5102710;28;20225;-77
2022/12/10 03:09:22;;;;;;;38.33;27.80;;;0.40;99.90;;;;;;5098696;28;20552;-76
2022/12/10 03:11:58;;;;;;;42.13;29.00;;;0.30;99.90;;;;;;5077372;28;20222;-75
2022/12/10 03:14:30;;;;;;;44.20;29.53;;;0.30;99.90;;;;;;5075951;28;20283;-73
2022/12/10 03:17:01;;;;;;;40.10;29.00;;;0.30;99.90;;;;;;5092083;28;20201;-75
2022/12/10 03:19:36;;;;;;;44.40;30.30;;;0.30;99.90;;;;;;5095825;28;20207;-76
2022/12/10 03:22:06;;;;;;;47.47;31.67;;;0.30;99.90;;;;;;5094212;28;20285;-76
2022/12/10 03:24:36;;;;;;;48.47;32.00;;;0.20;99.90;;;;;;5095366;28;20207;-77
2022/12/10 03:27:07;;;;;;;43.27;31.03;;;0.20;99.90;;;;;;5095380;28;20242;-78
2022/12/10 03:29:38;;;;;;;42.20;30.47;;;0.20;99.90;;;;;;5095460;28;20211;-79
2022/12/10 03:32:08;;;;;;;43.37;29.47;;;0.20;99.90;;;;;;5095412;28;20922;-78
2022/12/10 03:34:38;;;;;;;41.23;28.93;;;0.20;99.90;;;;;;5094782;28;20213;-78
2022/12/10 03:37:07;;;;;;;42.80;29.13;;;0.30;99.90;;;;;;5095338;28;20457;-79
2022/12/10 03:39:35;;;;;;;42.07;28.00;;;0.40;99.90;;;;;;5095644;28;20407;-76
2022/12/10 03:42:05;;;;;;;42.63;29.13;;;0.30;99.90;;;;;;5093163;28;20574;-77
2022/12/10 03:44:35;;;;;;;42.53;30.00;;;0.20;99.90;;;;;;5089179;28;20211;-78
2022/12/10 03:47:05;;;;;;;43.00;28.77;;;0.20;99.90;;;;;;5079703;28;20214;-75
2022/12/10 03:49:34;;;;;;;39.47;29.47;;;0.20;99.90;;;;;;5075373;28;20203;-78
2022/12/10 03:52:03;;;;;;;46.60;31.00;;;0.20;99.90;;;;;;5075053;28;20461;-79
2022/12/10 03:54:31;;;;;;;43.07;30.63;;;0.20;99.90;;;;;;5081017;28;20460;-79
2022/12/10 03:56:59;;;;;;;41.60;30.77;;;0.30;99.90;;;;;;5074756;28;20208;-78
2022/12/10 03:59:27;;;;;;;45.77;31.97;;;0.30;99.90;;;;;;5074450;28;20575;-78
2022/12/10 04:01:55;;;;;;;42.80;31.63;;;0.20;99.90;;;;;;5080097;28;20669;-78
2022/12/10 04:04:26;;;;;;;39.90;30.17;;;0.20;99.90;;;;;;5075765;28;20218;-80
2022/12/10 04:06:56;;;;;;;42.63;30.50;;;0.20;99.90;;;;;;5082591;28;20795;-79
2022/12/10 04:09:24;;;;;;;45.30;31.40;;;0.20;99.90;;;;;;5076329;28;20940;-78
2022/12/10 04:11:56;;;;;;;44.40;31.50;;;0.20;99.90;;;;;;5083809;28;20472;-79
2022/12/10 04:17:12;;;;;;;43.33;30.87;;;0.20;99.90;;;;;;5094415;28;20934;-79
2022/12/10 04:19:40;;;;;;;39.30;28.47;;;0.10;99.90;;;;;;5087153;28;20227;-80
2022/12/10 04:27:49;;;;;;;42.03;29.93;;;0.20;99.90;;;;;;5080997;28;20889;-80
2022/12/10 04:30:18;;;;;;;41.73;30.43;;;0.20;99.90;;;;;;5094588;28;20459;-81
2022/12/10 04:32:46;;;;;;;42.50;30.07;;;0.20;99.90;;;;;;5093515;28;20254;-79
2022/12/10 04:35:14;;;;;;;45.20;31.73;;;0.20;99.90;;;;;;5094834;28;20303;-79
2022/12/10 04:37:44;;;;;;;44.13;29.80;;;0.20;99.90;;;;;;5094626;28;20225;-77
2022/12/10 04:40:12;;;;;;;44.03;31.77;;;0.20;99.90;;;;;;5094097;28;20682;-78
2022/12/10 04:42:41;;;;;;;47.53;31.90;;;0.20;99.90;;;;;;5093934;28;20203;-79
2022/12/10 04:45:10;;;;;;;51.67;33.27;;;0.20;99.90;;;;;;5094971;28;20576;-79
2022/12/10 04:47:38;;;;;;;56.03;34.13;;;0.20;99.90;;;;;;5096070;28;20536;-79
2022/12/10 04:50:06;;;;;;;52.83;34.53;;;0.20;99.90;;;;;;5094468;28;20206;-78
2022/12/10 04:52:36;;;;;;;51.00;34.07;;;0.20;99.90;;;;;;5093715;28;20677;-79
2022/12/10 04:55:06;;;;;;;55.87;34.30;;;0.20;99.90;;;;;;5093274;28;20301;-81
2022/12/10 04:57:34;;;;;;;52.03;33.23;;;0.10;99.90;;;;;;5073676;28;20552;-80
2022/12/10 05:00:02;;;;;;;48.60;32.80;;;0.20;99.90;;;;;;5073808;28;20490;-79
2022/12/10 05:02:30;;;;;;;49.23;33.57;;;0.20;99.90;;;;;;5073608;28;20212;-79
2022/12/10 05:04:59;;;;;;;46.67;31.77;;;0.20;99.90;;;;;;5075354;28;20210;-80
2022/12/10 05:07:27;;;;;;;44.87;32.07;;;0.20;99.90;;;;;;5094012;28;20217;-77
2022/12/10 05:09:55;;;;;;;46.07;32.83;;;0.30;99.90;;;;;;5093829;28;20291;-76
2022/12/10 05:12:24;;;;;;;47.40;32.17;;;0.30;99.90;;;;;;5093737;28;20207;-79
2022/12/10 05:14:53;;;;;;;43.93;31.00;;;0.20;99.90;;;;;;5081180;28;20453;-79
2022/12/10 05:17:21;;;;;;;46.00;31.73;;;0.20;99.90;;;;;;5091814;28;20469;-79
2022/12/10 05:19:50;;;;;;;44.93;31.80;;;0.10;99.90;;;;;;5100671;28;20219;-77
2022/12/10 05:25:03;;;;;;;47.10;33.53;;;0.20;99.90;;;;;;5085986;28;20210;-80
2022/12/10 05:27:34;;;;;;;50.03;34.07;;;0.20;99.90;;;;;;5073184;28;20204;-80
2022/12/10 05:30:02;;;;;;;48.40;33.40;;;0.20;99.90;;;;;;5073328;28;20254;-78
2022/12/10 05:32:30;;;;;;;49.90;33.43;;;0.10;99.90;;;;;;5073129;28;20246;-81
2022/12/10 05:34:58;;;;;;;45.07;33.10;;;0.20;99.90;;;;;;5073781;28;20680;-79
2022/12/10 05:37:27;;;;;;;46.60;32.73;;;0.10;99.90;;;;;;5073352;28;20537;-78
2022/12/10 05:39:56;;;;;;;44.27;32.03;;;0.10;99.90;;;;;;5075805;28;20716;-79
2022/12/10 05:42:24;;;;;;;46.00;32.33;;;0.20;99.90;;;;;;5089314;28;20819;-80
2022/12/10 05:44:53;;;;;;;46.63;32.93;;;0.10;99.90;;;;;;5092940;28;20198;-79
2022/12/10 05:47:21;;;;;;;50.30;32.90;;;0.10;99.90;;;;;;5088867;28;20202;-81
2022/12/10 05:49:50;;;;;;;43.20;30.67;;;0.20;99.90;;;;;;5091418;28;20226;-79
2022/12/10 05:52:19;;;;;;;48.07;32.23;;;0.20;99.90;;;;;;5091175;28;20207;-81
2022/12/10 05:54:47;;;;;;;43.20;30.80;;;0.20;99.90;;;;;;5090155;28;20452;-80
2022/12/10 05:57:16;;;;;;;47.23;32.03;;;0.20;99.90;;;;;;5092884;28;20207;-80
2022/12/10 05:59:44;;;;;;;43.67;30.90;;;0.20;99.90;;;;;;5089509;28;20476;-80
2022/12/10 06:02:13;;;;;;;46.10;31.87;;;0.20;99.90;;;;;;5092382;28;20449;-79
2022/12/10 06:04:41;;;;;;;42.03;30.67;;;0.20;99.90;;;;;;5093237;28;20203;-81
2022/12/10 06:07:10;;;;;;;43.03;30.73;;;0.20;99.90;;;;;;5093774;28;20202;-78
2022/12/10 06:09:39;;;;;;;43.27;30.83;;;0.20;99.90;;;;;;5092810;28;20214;-80
2022/12/10 06:12:07;;;;;;;45.57;31.83;;;0.20;99.90;;;;;;5091911;28;20195;-80
2022/12/10 06:14:35;;;;;;;44.87;32.20;;;0.20;99.90;;;;;;5080262;28;20247;-79
2022/12/10 06:17:04;;;;;;;46.00;31.83;;;0.30;99.90;;;;;;5079837;28;20204;-79
2022/12/10 06:19:33;;;;;;;46.93;32.00;;;0.20;99.90;;;;;;5084342;28;20692;-79
2022/12/10 06:22:01;;;;;;;45.33;33.20;;;0.20;99.90;;;;;;5095215;28;20441;-78
2022/12/10 06:24:33;;;;;;;44.40;31.93;;;0.20;99.90;;;;;;5096419;28;20264;-79
2022/12/10 06:27:01;;;;;;;47.30;33.03;;;0.10;99.90;;;;;;5094550;28;20542;-81
2022/12/10 06:29:29;;;;;;;47.73;34.00;;;0.10;99.90;;;;;;5092658;28;20247;-77
2022/12/10 06:31:58;;;;;;;45.27;32.57;;;0.20;99.90;;;;;;5092621;28;20222;-80
2022/12/10 06:34:26;;;;;;;46.00;33.10;;;0.20;99.90;;;;;;5092375;28;20219;-79
2022/12/10 06:36:55;;;;;;;47.17;32.50;;;0.20;99.90;;;;;;5078844;28;20469;-78
2022/12/10 06:39:24;;;;;;;48.37;34.33;;;0.20;99.90;;;;;;5071845;28;20723;-79
2022/12/10 06:41:52;;;;;;;53.70;33.50;;;0.20;99.90;;;;;;5072025;28;20469;-79
2022/12/10 06:44:26;;;;;;;52.40;34.93;;;0.20;99.90;;;;;;5085871;28;20277;-79
2022/12/10 06:46:54;;;;;;;52.23;34.53;;;0.20;99.90;;;;;;5092721;28;20455;-79
2022/12/10 06:49:22;;;;;;;51.17;35.77;;;0.20;99.90;;;;;;5093501;28;20237;-79
2022/12/10 06:51:50;;;;;;;49.60;35.63;;;0.20;99.90;;;;;;5091759;28;20214;-76
2022/12/10 06:54:20;;;;;;;53.90;36.77;;;0.20;99.90;;;;;;5078363;28;20302;-79
2022/12/10 06:56:48;;;;;;;53.93;35.80;;;0.20;99.90;;;;;;5087754;28;20487;-80
2022/12/10 06:59:16;;;;;;;54.53;36.00;;;0.20;99.90;;;;;;5095854;28;20712;-78
2022/12/10 07:01:44;;;;;;;52.97;36.47;;;0.20;99.90;;;;;;5086258;28;20223;-76
2022/12/10 07:04:13;;;;;;;50.33;35.77;;;0.20;99.90;;;;;;5090837;28;20199;-76
2022/12/10 07:06:41;;;;;;;52.17;34.73;;;0.30;99.90;;;;;;5093047;28;20468;-78
2022/12/10 07:09:10;;;;;;;55.67;36.73;;;0.20;99.90;;;;;;5094635;28;20203;-76
2022/12/10 07:11:39;;;;;;;52.03;34.93;;;0.20;99.90;;;;;;5102762;28;20528;-78
2022/12/10 07:14:08;;;;;;;50.70;35.57;;;0.20;99.90;;;;;;5102700;28;20722;-78
2022/12/10 07:16:36;;;;;;;49.73;34.97;;;0.30;99.90;;;;;;5098787;28;20303;-80
2022/12/10 07:19:09;;;;;;;48.77;33.47;;;0.30;99.90;;;;;;5095094;28;20560;-78
2022/12/10 07:21:37;;;;;;;48.27;33.70;;;0.20;99.90;;;;;;5094616;28;20524;-80
2022/12/10 07:24:07;;;;;;;49.77;33.67;;;0.20;99.90;;;;;;5092543;28;20215;-80
2022/12/10 07:26:38;;;;;;;46.57;32.77;;;0.20;99.90;;;;;;5101557;28;20202;-80
2022/12/10 07:29:10;;;;;;;48.13;33.23;;;0.30;99.90;;;;;;5094464;28;20207;-79
2022/12/10 07:31:38;;;;;;;51.70;34.87;;;0.20;99.90;;;;;;5093153;28;20207;-80
2022/12/10 07:34:06;;;;;;;46.20;33.17;;;0.30;99.90;;;;;;5094894;28;20585;-81
2022/12/10 07:36:35;;;;;;;49.10;34.37;;;0.30;99.90;;;;;;5094462;28;20881;-78
2022/12/10 07:39:06;;;;;;;48.87;33.93;;;0.40;99.90;;;;;;5094901;28;20293;-80
2022/12/10 07:41:35;;;;;;;46.73;32.83;;;0.30;99.90;;;;;;5089272;28;20516;-79
2022/12/10 07:44:06;;;;;;;44.70;32.20;;;0.30;99.90;;;;;;5094095;28;20225;-80
2022/12/10 07:46:35;;;;;;;46.20;32.30;;;0.30;99.90;;;;;;5094763;28;20280;-80
2022/12/10 07:49:04;;;;;;;43.93;31.07;;;0.40;99.90;;;;;;5093142;28;20211;-80
2022/12/10 07:51:32;;;;;;;42.00;30.57;;;0.40;99.90;;;;;;5094690;28;20437;-80
2022/12/10 07:54:01;;;;;;;44.67;30.83;;;0.50;99.90;;;;;;5093967;28;20240;-78
2022/12/10 07:56:29;;;;;;;42.87;30.13;;;0.50;99.90;;;;;;5094991;28;20203;-81
2022/12/10 07:58:57;;;;;;;39.53;29.73;;;0.50;99.90;;;;;;5094065;28;20705;-80
2022/12/10 08:01:26;;;;;;;41.73;30.27;;;0.50;99.90;;;;;;5096478;28;20235;-81
2022/12/10 08:03:57;;;;;;;41.97;30.60;;;0.50;99.90;;;;;;5095673;28;20573;-79
2022/12/10 08:06:28;;;;;;;43.37;30.77;;;0.50;99.90;;;;;;5093923;28;20290;-79
2022/12/10 08:08:58;;;;;;;41.93;29.53;;;0.40;99.90;;;;;;5092242;28;20617;-78
2022/12/10 08:11:26;;;;;;;43.83;30.17;;;0.50;99.90;;;;;;5089035;28;20214;-79
2022/12/10 08:13:55;;;;;;;45.60;31.60;;;0.60;99.90;;;;;;5093573;28;20199;-82
2022/12/10 08:16:26;;;;;;;43.37;30.60;;;0.50;99.90;;;;;;5091156;28;20226;-76
2022/12/10 08:18:58;;;;;;;41.90;29.47;;;0.50;99.90;;;;;;5093361;28;20674;-82
2022/12/10 08:21:29;;;;;;;44.87;32.17;;;0.70;99.90;;;;;;5091193;28;20307;-77
2022/12/10 08:23:58;;;;;;;42.70;30.20;;;0.70;99.90;;;;;;5094193;28;20210;-80
2022/12/10 08:26:28;;;;;;;38.33;27.53;;;0.70;99.90;;;;;;5098666;28;20691;-82
2022/12/10 08:28:58;;;;;;;41.20;29.03;;;0.60;99.90;;;;;;5092709;28;20211;-80
2022/12/10 08:31:27;;;;;;;43.30;30.27;;;0.60;99.90;;;;;;5093332;28;20195;-80
2022/12/10 08:34:04;;;;;;;41.17;29.67;;;0.50;99.90;;;;;;5094451;28;20194;-79
2022/12/10 08:36:32;;;;;;;44.23;30.97;;;0.60;99.90;;;;;;5093784;28;20207;-79
2022/12/10 08:39:01;;;;;;;46.03;31.00;;;0.50;99.90;;;;;;5092686;28;20822;-77
2022/12/10 08:41:29;;;;;;;45.17;30.63;;;0.50;99.90;;;;;;5091850;28;20246;-80
2022/12/10 08:43:57;;;;;;;46.13;30.43;;;0.60;99.90;;;;;;5093229;28;20199;-80
2022/12/10 08:46:26;;;;;;;43.17;30.67;;;0.70;99.90;;;;;;5092689;28;20203;-81
2022/12/10 08:48:54;;;;;;;44.63;30.37;;;0.70;99.90;;;;;;5093089;28;20570;-80
2022/12/10 08:51:25;;;;;;;43.33;29.80;;;0.80;99.90;;;;;;5093531;28;20560;-81
2022/12/10 08:53:53;;;;;;;43.17;29.50;;;0.90;99.90;;;;;;5093116;28;20457;-79
2022/12/10 08:56:21;;;;;;;40.83;29.73;;;0.80;99.90;;;;;;5091614;28;20214;-79
2022/12/10 08:58:49;;;;;;;39.80;29.30;;;0.80;99.90;;;;;;5092819;28;20697;-81
2022/12/10 09:01:19;;;;;;;43.83;29.07;;;0.90;99.90;;;;;;5092712;28;20231;-82
2022/12/10 09:03:47;;;;;;;42.83;30.23;;;0.70;99.90;;;;;;5092507;28;20264;-80
2022/12/10 09:06:18;;;;;;;44.00;31.33;;;0.60;99.90;;;;;;5075625;28;20214;-79
2022/12/10 09:08:47;;;;;;;46.90;31.43;;;0.70;99.90;;;;;;5073239;28;20195;-77
2022/12/10 09:11:18;;;;;;;44.30;30.57;;;0.80;99.90;;;;;;5073093;28;20564;-79
2022/12/10 09:13:47;;;;;;;41.67;29.00;;;0.90;99.90;;;;;;5086804;28;20207;-78
2022/12/10 09:16:15;;;;;;;41.87;29.20;;;1.00;99.90;;;;;;5093327;28;20576;-80
2022/12/10 09:18:44;;;;;;;38.83;28.43;;;1.00;99.90;;;;;;5092707;28;20210;-79
2022/12/10 09:21:14;;;;;;;41.43;28.67;;;1.00;99.90;;;;;;5082791;28;20558;-78
2022/12/10 09:23:43;;;;;;;41.13;28.97;;;1.00;99.90;;;;;;5072664;28;20202;-79
2022/12/10 09:26:15;;;;;;;42.67;29.27;;;1.00;99.90;;;;;;5084194;28;20254;-81
2022/12/10 09:28:45;;;;;;;41.17;28.53;;;1.10;99.90;;;;;;5092768;28;20207;-82
2022/12/10 09:31:14;;;;;;;42.63;28.50;;;1.10;99.90;;;;;;5072500;28;20203;-80
2022/12/10 09:33:50;;;;;;;38.83;27.70;;;1.10;99.90;;;;;;5070261;28;20242;-78
2022/12/10 09:36:18;;;;;;;38.13;27.50;;;1.00;99.90;;;;;;5071478;28;20242;-81
2022/12/10 09:38:58;;;;;;;40.50;28.97;;;1.00;99.90;;;;;;5070849;28;20254;-80
2022/12/10 09:41:50;;;;;;;41.47;28.60;;;1.00;99.90;;;;;;5070077;28;20772;-81
2022/12/10 09:44:30;;;;;;;41.30;29.30;;;0.90;99.90;;;;;;5070383;28;20184;-80
2022/12/10 09:47:01;;;;;;;41.73;29.70;;;0.90;99.90;;;;;;5071531;28;20211;-74
2022/12/10 09:49:40;;;;;;;43.13;28.83;;;1.00;99.90;;;;;;5092710;28;20557;-73
2022/12/10 09:52:14;;;;;;;42.67;29.90;;;1.00;99.90;;;;;;5092630;28;20203;-74
2022/12/10 09:54:46;;;;;;;41.67;28.63;;;0.80;99.90;;;;;;5093370;28;20187;-74
2022/12/10 09:57:22;;;;;;;44.63;29.37;;;0.90;99.90;;;;;;5092696;28;20245;-73
2022/12/10 09:59:52;;;;;;;44.43;29.67;;;1.00;99.90;;;;;;5092828;28;20325;-75
2022/12/10 10:02:23;;;;;;;43.80;29.93;;;0.90;99.90;;;;;;5092524;28;20222;-75
2022/12/10 10:04:54;;;;;;;44.20;29.60;;;0.90;99.90;;;;;;5093227;28;20280;-73
2022/12/10 10:07:26;;;;;;;43.20;30.40;;;0.90;99.90;;;;;;5085090;28;20290;-76
2022/12/10 10:10:00;;;;;;;44.63;30.23;;;0.90;99.90;;;;;;5072762;28;20207;-73
2022/12/10 10:12:32;;;;;;;46.20;30.17;;;0.90;99.90;;;;;;5072507;28;20219;-74
2022/12/10 10:15:13;;;;;;;45.80;31.87;;;0.80;99.90;;;;;;5072495;28;20195;-75
2022/12/10 10:17:45;;;;;;;44.50;31.07;;;0.90;99.90;;;;;;5089246;28;20546;-74
2022/12/10 10:20:15;;;;;;;46.57;31.50;;;0.80;99.90;;;;;;5092794;28;20225;-76
2022/12/10 10:22:44;;;;;;;43.87;31.03;;;0.80;99.90;;;;;;5092014;28;20229;-74
2022/12/10 10:25:16;;;;;;;42.13;30.37;;;0.80;99.90;;;;;;5079773;28;20213;-74
2022/12/10 10:27:46;;;;;;;44.43;29.73;;;0.90;99.90;;;;;;5072987;28;20553;-75
2022/12/10 10:30:17;;;;;;;40.87;29.70;;;0.80;99.90;;;;;;5073042;28;20242;-74
2022/12/10 10:32:50;;;;;;;42.57;29.63;;;0.80;99.90;;;;;;5076400;28;20207;-74
2022/12/10 10:35:28;;;;;;;40.73;29.83;;;0.80;99.90;;;;;;5076769;28;20196;-74
2022/12/10 10:38:02;;;;;;;41.40;28.80;;;0.90;99.90;;;;;;5076160;28;20215;-74
2022/12/10 10:40:34;;;;;;;39.57;28.63;;;0.90;99.90;;;;;;5077500;28;20199;-74
2022/12/10 10:43:03;;;;;;;42.60;30.13;;;0.90;99.90;;;;;;5095640;28;20246;-74
2022/12/10 10:45:36;;;;;;;42.77;29.27;;;0.90;99.90;;;;;;5095993;28;20215;-73
2022/12/10 10:48:07;;;;;;;41.63;29.77;;;0.80;99.90;;;;;;5095757;28;20232;-73
2022/12/10 10:50:41;;;;;;;42.70;29.27;;;0.80;99.90;;;;;;5080545;28;20261;-75
2022/12/10 10:53:24;;;;;;;42.33;30.00;;;0.80;99.90;;;;;;5080955;28;20254;-73
2022/12/10 10:55:54;;;;;;;45.27;31.70;;;0.70;99.90;;;;;;5095387;28;20240;-73
2022/12/10 10:58:25;;;;;;;43.23;30.27;;;0.80;99.90;;;;;;5095652;28;20293;-75
2022/12/10 11:01:00;;;;;;;44.97;31.03;;;0.90;99.90;;;;;;5095211;28;20231;-76
2022/12/10 11:03:30;;;;;;;41.10;29.67;;;0.80;99.90;;;;;;5099176;28;20695;-73
2022/12/10 11:05:59;;;;;;;41.37;30.10;;;0.80;99.90;;;;;;5096343;28;20225;-76
2022/12/10 11:08:31;;;;;;;47.30;31.27;;;0.70;99.90;;;;;;5095288;28;20455;-76
2022/12/10 11:11:04;;;;;;;42.50;29.90;;;0.90;99.90;;;;;;5094048;28;20219;-76
2022/12/10 11:13:37;;;;;;;43.03;29.53;;;0.80;99.90;;;;;;5096184;28;20215;-76
2022/12/10 11:16:13;;;;;;;43.53;29.97;;;0.90;99.90;;;;;;5097451;28;20207;-75
2022/12/10 11:18:43;;;;;;;43.30;29.60;;;0.90;99.90;;;;;;5105762;28;20207;-74
2022/12/10 11:21:22;;;;;;;44.60;29.73;;;0.90;99.90;;;;;;5106268;28;20218;-74
2022/12/10 11:23:55;;;;;;;45.57;30.53;;;0.80;99.90;;;;;;5098794;28;20231;-74
2022/12/10 11:26:39;;;;;;;44.70;30.10;;;0.80;99.90;;;;;;5095836;28;20732;-74
2022/12/10 11:29:24;;;;;;;46.07;29.67;;;0.90;99.90;;;;;;5095763;28;20206;-73
2022/12/10 11:32:05;;;;;;;49.03;31.73;;;0.90;99.90;;;;;;5095254;28;20229;-74
2022/12/10 11:34:53;;;;;;;47.80;30.73;;;0.80;99.90;;;;;;5094950;28;20679;-73
2022/12/10 11:37:30;;;;;;;48.73;31.80;;;0.80;99.90;;;;;;5096662;28;20559;-75
2022/12/10 11:40:28;;;;;;;49.67;31.23;;;0.80;99.90;;;;;;5098924;28;20750;-73
2022/12/10 11:43:15;;;;;;;47.10;30.30;;;0.90;99.90;;;;;;5094126;28;20479;-74
2022/12/10 11:46:02;;;;;;;49.03;31.57;;;0.80;99.90;;;;;;5074829;28;20203;-75
2022/12/10 11:48:41;;;;;;;51.57;32.87;;;0.80;99.90;;;;;;5074386;28;20265;-73
2022/12/10 11:51:18;;;;;;;53.07;33.00;;;0.90;99.90;;;;;;5075045;28;20283;-75
2022/12/10 11:54:06;;;;;;;54.83;34.10;;;0.80;99.90;;;;;;5074612;28;20298;-75
2022/12/10 11:56:41;;;;;;;55.37;33.37;;;0.80;99.90;;;;;;5073973;28;20283;-74
2022/12/10 11:59:23;;;;;;;51.93;32.97;;;0.80;99.90;;;;;;5079279;28;20294;-77
2022/12/10 12:02:40;;;;;;;57.70;34.70;;;0.80;99.90;;;;;;5094506;28;20226;-74
2022/12/10 12:05:24;;;;;;;56.67;34.93;;;0.80;99.90;;;;;;5094948;28;20213;-73
2022/12/10 12:08:00;;;;;;;60.07;35.47;;;0.80;99.90;;;;;;5085292;28;20298;-73
2022/12/10 12:10:45;;;;;;;53.03;34.43;;;1.00;99.90;;;;;;5074198;28;20201;-73
2022/12/10 12:13:25;;;;;;;56.37;33.77;;;0.90;99.90;;;;;;5075948;28;20238;-73
2022/12/10 12:15:58;;;;;;;52.63;34.30;;;1.00;99.90;;;;;;5080497;28;20616;-76
2022/12/10 12:18:37;;;;;;;57.87;34.30;;;1.10;99.90;;;;;;5094756;28;20275;-74
2022/12/10 12:21:10;;;;;;;58.53;35.93;;;1.00;99.90;;;;;;5094099;28;20644;-73
2022/12/10 12:23:45;;;;;;;61.53;37.00;;;0.90;99.90;;;;;;5086541;28;20247;-72
2022/12/10 12:26:18;;;;;;;54.67;35.47;;;0.90;99.90;;;;;;5074101;28;20207;-77
2022/12/10 12:28:50;;;;;;;56.23;34.83;;;1.00;99.90;;;;;;5074007;28;20693;-73
2022/12/10 12:31:22;;;;;;;57.67;35.73;;;1.10;99.90;;;;;;5074290;28;20708;-73
2022/12/10 12:33:59;;;;;;;54.70;35.27;;;1.00;99.90;;;;;;5074259;28;20190;-75
2022/12/10 12:36:30;;;;;;;57.67;36.40;;;1.10;99.90;;;;;;5074420;28;20207;-74
2022/12/10 12:39:06;;;;;;;58.83;36.07;;;1.20;99.90;;;;;;5074156;28;20259;-75
2022/12/10 12:41:43;;;;;;;53.37;34.63;;;1.20;99.90;;;;;;5074840;28;20225;-73
2022/12/10 12:44:19;;;;;;;54.67;34.33;;;1.20;99.90;;;;;;5056176;28;20491;-75
2022/12/10 12:46:49;;;;;;;55.23;35.70;;;1.40;99.90;;;;;;5075707;28;20215;-74
2022/12/10 12:49:24;;;;;;;52.63;33.47;;;1.30;99.90;;;;;;5075056;28;20610;-74
2022/12/10 12:51:57;;;;;;;53.20;35.10;;;1.10;99.90;;;;;;5089073;28;20637;-75
2022/12/10 12:54:27;;;;;;;52.77;35.17;;;1.30;99.90;;;;;;5093262;28;20237;-72
2022/12/10 12:57:07;;;;;;;55.27;34.63;;;1.20;99.90;;;;;;5094451;28;20210;-74
2022/12/10 12:59:53;;;;;;;58.33;36.77;;;1.20;99.90;;;;;;5094582;28;20252;-73
2022/12/10 13:02:43;;;;;;;49.87;33.80;;;1.40;99.90;;;;;;5093686;28;20246;-74
2022/12/10 13:05:17;;;;;;;48.43;33.07;;;2.10;99.90;;;;;;5094081;28;20199;-76
2022/12/10 13:08:06;;;;;;;47.80;32.60;;;2.30;99.90;;;;;;5095916;28;20209;-77
2022/12/10 13:10:45;;;;;;;45.63;32.73;;;2.30;99.90;;;;;;5094991;28;20242;-75